Time;durP1;ratioP1;P1;durP2;ratioP2;P2;SDS_P1;SDS_P2;PMS_P1;PMS_P2;Temp;Humidity;BMP_temperature;BMP_pressure;BME280_temperature;BME280_humidity;BME280_pressure;Samples;Min_cycle;Max_cycle;Signal;HPM_P1;HPM_P2
2023/10/31 00:01:43;;;;;;;1.75;1.15;;;;;;;11.26;100.00;97300.16;5024085;28;20030;-78
2023/10/31 00:04:08;;;;;;;2.17;1.30;;;;;;;11.13;100.00;97287.78;5023497;28;20105;-77
2023/10/31 00:06:35;;;;;;;1.90;1.15;;;;;;;11.32;100.00;97299.22;5025024;28;20242;-78
2023/10/31 00:09:00;;;;;;;1.48;0.95;;;;;;;11.33;100.00;97305.44;5029944;28;20067;-79
2023/10/31 00:11:25;;;;;;;2.40;1.25;;;;;;;11.27;100.00;97306.44;5023393;28;20030;-79
2023/10/31 00:13:51;;;;;;;1.42;0.73;;;;;;;11.17;100.00;97302.47;5022640;28;20215;-78
2023/10/31 00:16:16;;;;;;;4.03;0.95;;;;;;;11.02;100.00;97288.66;5024411;28;20318;-78
2023/10/31 00:18:41;;;;;;;4.13;0.77;;;;;;;11.29;100.00;97317.81;5022387;28;20030;-76
2023/10/31 00:21:06;;;;;;;2.88;1.00;;;;;;;11.21;100.00;97324.44;5024230;28;20211;-78
2023/10/31 00:23:32;;;;;;;5.00;0.73;;;;;;;11.31;100.00;97343.56;5024186;28;20322;-78
2023/10/31 00:25:57;;;;;;;1.10;0.60;;;;;;;11.32;100.00;97353.38;5021602;28;20121;-79
2023/10/31 00:28:22;;;;;;;0.57;0.38;;;;;;;11.22;100.00;97349.66;5023614;28;20032;-78
2023/10/31 00:30:48;;;;;;;0.90;0.40;;;;;;;11.24;100.00;97359.19;5022468;28;20076;-77
2023/10/31 00:33:13;;;;;;;1.48;0.35;;;;;;;11.24;100.00;97356.47;5023844;28;20037;-79
2023/10/31 00:35:38;;;;;;;0.80;0.40;;;;;;;11.17;100.00;97361.19;5023447;28;20030;-79
2023/10/31 00:38:04;;;;;;;5.45;0.60;;;;;;;11.22;100.00;97364.00;5023887;28;20049;-77
2023/10/31 00:40:29;;;;;;;0.80;0.60;;;;;;;11.01;100.00;97341.16;5023426;28;20072;-77
2023/10/31 00:42:57;;;;;;;1.50;0.60;;;;;;;11.14;100.00;97361.69;5022069;28;20017;-79
2023/10/31 00:45:22;;;;;;;1.27;0.60;;;;;;;11.13;100.00;97362.75;5016734;28;21059;-79
2023/10/31 00:47:47;;;;;;;0.70;0.30;;;;;;;10.93;100.00;97350.47;5024258;28;20045;-79
2023/10/31 00:50:13;;;;;;;0.65;0.30;;;;;;;11.00;100.00;97352.19;5025263;28;20060;-80
2023/10/31 00:52:38;;;;;;;1.08;0.30;;;;;;;10.88;100.00;97346.84;5027481;28;20018;-80
2023/10/31 00:55:04;;;;;;;0.30;0.30;;;;;;;10.90;100.00;97366.38;5023014;28;20060;-81
2023/10/31 00:57:29;;;;;;;0.47;0.30;;;;;;;10.68;100.00;97328.31;5026432;28;20022;-81
2023/10/31 00:59:55;;;;;;;1.33;0.40;;;;;;;10.84;100.00;97357.31;5035070;28;20116;-81
2023/10/31 01:02:20;;;;;;;0.60;0.38;;;;;;;10.74;100.00;97355.25;5023980;28;20029;-80
2023/10/31 01:04:45;;;;;;;2.28;0.28;;;;;;;10.68;100.00;97348.06;5023087;28;20026;-82
2023/10/31 01:07:12;;;;;;;0.68;0.30;;;;;;;10.50;100.00;97335.53;5040475;28;20022;-80
2023/10/31 01:09:38;;;;;;;3.65;0.40;;;;;;;10.62;100.00;97365.28;5036879;28;20018;-82
2023/10/31 01:12:04;;;;;;;1.25;0.25;;;;;;;10.48;100.00;97350.38;5022612;28;20093;-80
2023/10/31 01:14:29;;;;;;;0.70;0.45;;;;;;;10.46;100.00;97358.72;5029956;28;20025;-82
2023/10/31 01:16:55;;;;;;;2.38;0.43;;;;;;;10.34;100.00;97362.50;5026088;28;20113;-81
2023/10/31 01:19:20;;;;;;;1.55;0.75;;;;;;;10.06;100.00;97334.28;5026705;28;20226;-81
2023/10/31 01:21:45;;;;;;;1.83;0.50;;;;;;;10.16;100.00;97371.53;5026227;28;20025;-79
2023/10/31 01:24:11;;;;;;;0.70;0.40;;;;;;;10.13;100.00;97370.13;5027034;28;20018;-79
2023/10/31 01:26:36;;;;;;;1.33;0.43;;;;;;;10.09;100.00;97379.78;5024513;28;20030;-81
2023/10/31 01:29:01;;;;;;;2.05;0.38;;;;;;;10.01;100.00;97378.25;5026879;28;20026;-80
2023/10/31 01:31:27;;;;;;;1.80;0.40;;;;;;;9.91;100.00;97360.97;5028674;28;20036;-81
2023/10/31 01:33:52;;;;;;;1.60;0.38;;;;;;;9.88;100.00;97354.97;5022387;28;20021;-81
2023/10/31 01:36:18;;;;;;;1.88;0.30;;;;;;;9.89;100.00;97355.78;5020465;28;20033;-78
2023/10/31 01:38:43;;;;;;;1.08;0.60;;;;;;;9.80;100.00;97358.03;5035596;28;20025;-80
2023/10/31 01:41:09;;;;;;;1.30;0.50;;;;;;;9.68;100.00;97369.88;5046449;28;20073;-81
2023/10/31 01:43:36;;;;;;;1.75;0.40;;;;;;;9.61;100.00;97372.66;5028964;28;20052;-79
2023/10/31 01:46:02;;;;;;;0.45;0.30;;;;;;;9.54;100.00;97382.78;5021881;28;20030;-79
2023/10/31 01:48:29;;;;;;;0.75;0.20;;;;;;;9.53;100.00;97383.81;5025055;28;20097;-77
2023/10/31 01:50:58;;;;;;;1.17;0.20;;;;;;;9.59;100.00;97399.91;5024723;28;20323;-81
2023/10/31 01:53:25;;;;;;;0.85;0.30;;;;;;;9.55;100.00;97400.59;5017743;28;20026;-82
2023/10/31 01:55:52;;;;;;;0.90;0.38;;;;;;;9.63;100.00;97405.66;5025997;28;20018;-82
2023/10/31 01:58:20;;;;;;;1.30;0.60;;;;;;;9.68;100.00;97407.69;5033204;28;20049;-82
2023/10/31 02:00:46;;;;;;;4.15;0.40;;;;;;;9.69;100.00;97407.44;5030986;28;20036;-81
2023/10/31 02:03:12;;;;;;;1.10;0.38;;;;;;;9.66;100.00;97402.50;5023956;28;20048;-82
2023/10/31 02:05:38;;;;;;;1.33;0.38;;;;;;;9.75;100.00;97416.50;5025518;28;20052;-80
2023/10/31 02:08:05;;;;;;;0.95;0.40;;;;;;;9.69;100.00;97410.13;5025973;28;20060;-83
2023/10/31 02:10:30;;;;;;;2.67;0.65;;;;;;;9.79;100.00;97413.09;5033842;28;20271;-81
2023/10/31 02:12:55;;;;;;;3.30;0.35;;;;;;;9.83;100.00;97421.56;5128660;23;20036;-74
2023/10/31 02:15:21;;;;;;;1.15;0.35;;;;;;;9.84;100.00;97432.13;5029831;28;20229;-74
2023/10/31 02:17:46;;;;;;;2.03;0.40;;;;;;;9.91;100.00;97439.31;5025245;28;20025;-74
2023/10/31 02:20:11;;;;;;;1.20;0.20;;;;;;;9.91;100.00;97431.22;5046861;28;20025;-74
2023/10/31 02:22:36;;;;;;;1.83;0.30;;;;;;;9.86;100.00;97427.31;5024797;28;20052;-74
2023/10/31 02:25:02;;;;;;;0.50;0.30;;;;;;;9.90;100.00;97430.38;5022014;28;20029;-73
2023/10/31 02:27:27;;;;;;;1.65;0.43;;;;;;;9.93;100.00;97420.97;5033485;28;20034;-73
2023/10/31 02:29:52;;;;;;;1.35;0.32;;;;;;;9.91;100.00;97426.63;5037782;28;20322;-74
2023/10/31 02:32:18;;;;;;;1.15;0.40;;;;;;;9.94;100.00;97419.94;5023867;28;20056;-73
2023/10/31 02:34:46;;;;;;;1.77;0.55;;;;;;;9.93;100.00;97418.28;5035534;28;20263;-71
2023/10/31 02:37:12;;;;;;;1.03;0.30;;;;;;;9.86;100.00;97413.81;5023134;28;20021;-73
2023/10/31 02:39:37;;;;;;;3.53;0.30;;;;;;;9.76;100.00;97421.66;5023723;28;20072;-74
2023/10/31 02:42:03;;;;;;;0.90;0.22;;;;;;;9.73;100.00;97434.81;5040577;28;20025;-73
2023/10/31 02:44:28;;;;;;;2.08;0.40;;;;;;;9.67;100.00;97439.28;5023631;28;20028;-74
2023/10/31 02:46:54;;;;;;;3.95;0.73;;;;;;;9.60;100.00;97435.84;5041424;28;20322;-74
2023/10/31 02:49:19;;;;;;;1.65;0.40;;;;;;;9.62;100.00;97447.25;5043032;28;20025;-73
2023/10/31 02:51:44;;;;;;;3.22;0.25;;;;;;;9.61;100.00;97457.19;5041855;28;20144;-73
2023/10/31 02:54:10;;;;;;;1.73;0.20;;;;;;;9.60;100.00;97446.63;5040730;28;20071;-73
2023/10/31 02:56:35;;;;;;;0.63;0.17;;;;;;;9.54;100.00;97445.69;5023359;28;20019;-74
2023/10/31 02:59:00;;;;;;;2.13;0.20;;;;;;;9.54;100.00;97455.66;5025003;28;20064;-74
2023/10/31 03:01:28;;;;;;;0.77;0.28;;;;;;;9.48;100.00;97456.56;5042080;28;20021;-74
2023/10/31 03:03:54;;;;;;;1.20;0.40;;;;;;;9.44;100.00;97467.00;5022732;28;20021;-73
2023/10/31 03:06:19;;;;;;;0.73;0.13;;;;;;;9.35;100.00;97469.22;5034123;28;20044;-74
2023/10/31 03:08:45;;;;;;;3.15;0.40;;;;;;;9.24;100.00;97464.56;5021528;28;20021;-73
2023/10/31 03:11:20;;;;;;;1.00;0.20;;;;;;;9.19;100.00;97467.13;5033806;28;20036;-73
2023/10/31 03:13:46;;;;;;;1.02;0.40;;;;;;;9.20;100.00;97476.88;5057797;28;20025;-75
2023/10/31 03:16:11;;;;;;;1.52;0.40;;;;;;;9.17;100.00;97471.94;5052412;28;20030;-74
2023/10/31 03:18:36;;;;;;;0.65;0.30;;;;;;;9.28;100.00;97486.53;5055397;28;20022;-75
2023/10/31 03:21:02;;;;;;;3.47;0.40;;;;;;;9.29;100.00;97478.22;5057046;28;20029;-73
2023/10/31 03:23:27;;;;;;;0.55;0.30;;;;;;;9.27;100.00;97474.91;5053965;28;20032;-75
2023/10/31 03:25:52;;;;;;;2.22;0.47;;;;;;;9.36;100.00;97484.34;5037239;28;20081;-74
2023/10/31 03:28:20;;;;;;;0.55;0.30;;;;;;;9.37;100.00;97491.38;5056541;28;20029;-74
2023/10/31 03:30:47;;;;;;;2.60;0.40;;;;;;;9.31;100.00;97484.22;5056096;28;20054;-75
2023/10/31 03:33:14;;;;;;;0.95;0.50;;;;;;;9.30;100.00;97501.47;5029219;28;20036;-75
2023/10/31 03:35:39;;;;;;;3.83;0.50;;;;;;;9.30;100.00;97492.53;5033634;28;20036;-74
2023/10/31 03:38:04;;;;;;;0.55;0.22;;;;;;;9.37;100.00;97483.28;5055358;28;20061;-75
2023/10/31 03:40:29;;;;;;;6.40;0.50;;;;;;;9.58;100.00;97470.34;5052069;28;20322;-74
2023/10/31 03:42:55;;;;;;;2.80;0.40;;;;;;;9.70;100.00;97476.63;5046342;28;20033;-74
2023/10/31 03:45:20;;;;;;;2.28;0.50;;;;;;;9.84;100.00;97472.66;5045204;28;20318;-74
2023/10/31 03:47:45;;;;;;;0.10;0.10;;;;;;;9.80;100.00;97457.97;5045031;28;20033;-73
2023/10/31 03:50:11;;;;;;;5.05;0.20;;;;;;;9.86;100.00;97465.13;5044756;28;20367;-74
2023/10/31 03:52:36;;;;;;;1.15;0.40;;;;;;;9.83;100.00;97462.09;5050649;28;20084;-73
2023/10/31 03:55:01;;;;;;;1.63;0.40;;;;;;;9.84;100.00;97461.03;5057796;28;20030;-74
2023/10/31 03:57:27;;;;;;;0.90;0.20;;;;;;;9.86;100.00;97467.03;5057234;28;20029;-72
2023/10/31 03:59:52;;;;;;;0.10;0.10;;;;;;;9.91;100.00;97469.03;5051147;28;20044;-73
2023/10/31 04:02:17;;;;;;;1.38;0.30;;;;;;;9.91;100.00;97466.34;5030571;28;20025;-74
2023/10/31 04:04:42;;;;;;;3.60;0.25;;;;;;;10.02;100.00;97476.34;5032026;28;20026;-73
2023/10/31 04:07:08;;;;;;;1.83;0.50;;;;;;;10.12;100.00;97460.38;5042434;28;20063;-74
2023/10/31 04:09:33;;;;;;;0.40;0.20;;;;;;;10.15;100.00;97465.31;5046270;28;20040;-74
2023/10/31 04:11:58;;;;;;;0.35;0.10;;;;;;;10.24;100.00;97460.38;5029031;28;20025;-75
2023/10/31 04:14:24;;;;;;;2.15;0.22;;;;;;;10.32;100.00;97468.16;5046357;28;20032;-73
2023/10/31 04:16:49;;;;;;;0.40;0.10;;;;;;;10.36;100.00;97463.13;5042715;28;20097;-71
2023/10/31 04:19:15;;;;;;;1.40;0.17;;;;;;;10.35;100.00;97466.88;5036414;28;20025;-74
2023/10/31 04:21:40;;;;;;;1.00;0.57;;;;;;;10.26;100.00;97467.19;5038234;28;20017;-75
2023/10/31 04:24:06;;;;;;;1.55;0.43;;;;;;;10.31;100.00;97471.94;5042806;28;20262;-74
2023/10/31 04:26:31;;;;;;;0.43;0.20;;;;;;;10.37;100.00;97464.75;5043419;28;20101;-75
2023/10/31 04:28:56;;;;;;;0.63;0.30;;;;;;;10.38;100.00;97467.25;5040727;28;20025;-75
2023/10/31 04:31:22;;;;;;;1.60;0.25;;;;;;;10.38;100.00;97471.81;5025335;28;20017;-74
2023/10/31 04:33:47;;;;;;;0.73;0.22;;;;;;;10.28;100.00;97472.41;5038627;28;20036;-74
2023/10/31 04:36:12;;;;;;;2.97;0.40;;;;;;;10.27;100.00;97479.69;5042284;28;20017;-74
2023/10/31 04:38:40;;;;;;;0.88;0.30;;;;;;;10.37;100.00;97480.97;5043675;28;20261;-75
2023/10/31 04:41:08;;;;;;;1.00;0.30;;;;;;;10.43;100.00;97486.28;5026898;28;20032;-73
2023/10/31 04:43:33;;;;;;;0.73;0.32;;;;;;;10.29;100.00;97490.25;5044994;28;20037;-74
2023/10/31 04:45:58;;;;;;;2.35;0.20;;;;;;;10.34;100.00;97490.38;5020207;28;20092;-74
2023/10/31 04:48:24;;;;;;;1.45;0.50;;;;;;;10.37;100.00;97483.69;5026031;28;20071;-75
2023/10/31 04:50:49;;;;;;;2.55;0.22;;;;;;;10.27;100.00;97482.41;5030433;28;20306;-78
2023/10/31 04:53:14;;;;;;;4.95;0.20;;;;;;;10.25;100.00;97472.84;5048384;28;20044;-73
2023/10/31 04:55:39;;;;;;;1.67;0.20;;;;;;;10.20;100.00;97478.94;5037319;28;20014;-74
2023/10/31 04:58:05;;;;;;;2.95;0.20;;;;;;;10.36;100.00;97490.97;5056610;28;20014;-73
2023/10/31 05:00:30;;;;;;;1.65;0.32;;;;;;;10.25;100.00;97480.94;5037104;28;20041;-73
2023/10/31 05:02:56;;;;;;;2.97;0.30;;;;;;;10.24;100.00;97477.44;5051400;28;20022;-72
2023/10/31 05:05:22;;;;;;;4.32;0.20;;;;;;;10.25;100.00;97479.06;5050048;28;20044;-73
2023/10/31 05:07:47;;;;;;;2.45;0.30;;;;;;;10.24;100.00;97490.09;5050692;28;20029;-72
2023/10/31 05:10:12;;;;;;;5.13;0.30;;;;;;;10.17;100.00;97500.22;5056560;28;20033;-74
2023/10/31 05:12:38;;;;;;;1.85;0.32;;;;;;;10.11;100.00;97493.84;5056041;28;20025;-73
2023/10/31 05:15:04;;;;;;;0.43;0.17;;;;;;;10.07;100.00;97496.19;5055624;28;20009;-71
2023/10/31 05:17:29;;;;;;;3.90;0.50;;;;;;;10.02;100.00;97500.66;5051048;28;20061;-75
2023/10/31 05:19:54;;;;;;;2.72;0.30;;;;;;;9.95;100.00;97499.91;5044572;28;20028;-73
2023/10/31 05:22:20;;;;;;;3.78;0.30;;;;;;;9.88;100.00;97497.34;5026737;28;20048;-75
2023/10/31 05:24:45;;;;;;;0.47;0.30;;;;;;;9.90;100.00;97492.50;5026383;28;20093;-75
2023/10/31 05:27:10;;;;;;;0.85;0.30;;;;;;;9.85;100.00;97489.66;5038949;28;20033;-74
2023/10/31 05:29:38;;;;;;;4.80;0.68;;;;;;;9.92;100.00;97511.19;5024570;28;20067;-73
2023/10/31 05:32:04;;;;;;;0.52;0.20;;;;;;;9.83;100.00;97513.41;5025162;28;20028;-74
2023/10/31 05:34:29;;;;;;;2.75;0.30;;;;;;;9.82;100.00;97517.16;5022159;28;20227;-72
2023/10/31 05:36:54;;;;;;;1.20;0.25;;;;;;;9.75;100.00;97509.16;5039262;28;20025;-73
2023/10/31 05:39:19;;;;;;;1.33;0.30;;;;;;;9.78;100.00;97511.41;5022860;28;20017;-74
2023/10/31 05:41:45;;;;;;;4.57;0.38;;;;;;;9.71;100.00;97513.34;5038553;28;20025;-78
2023/10/31 05:44:10;;;;;;;2.13;0.35;;;;;;;9.68;100.00;97523.81;5023511;28;20104;-76
2023/10/31 05:46:39;;;;;;;0.22;0.20;;;;;;;9.61;100.00;97511.19;5022068;28;20351;-74
2023/10/31 05:49:07;;;;;;;2.40;0.57;;;;;;;9.71;100.00;97529.56;5042910;28;20021;-75
2023/10/31 05:51:32;;;;;;;1.42;0.60;;;;;;;9.74;100.00;97521.00;5025159;28;20021;-74
2023/10/31 05:53:57;;;;;;;4.18;0.57;;;;;;;9.72;100.00;97522.28;5042381;28;20108;-75
2023/10/31 05:56:23;;;;;;;1.90;0.50;;;;;;;9.65;100.00;97525.09;5025377;28;20048;-74
2023/10/31 05:58:48;;;;;;;1.30;0.40;;;;;;;9.63;100.00;97540.69;5041929;28;20367;-74
2023/10/31 06:01:13;;;;;;;0.75;0.40;;;;;;;9.58;100.00;97525.16;5023066;28;20112;-76
2023/10/31 06:03:42;;;;;;;0.63;0.25;;;;;;;9.65;100.00;97542.09;5040236;28;20021;-74
2023/10/31 06:06:08;;;;;;;1.85;0.30;;;;;;;9.57;100.00;97550.53;5042465;28;20314;-75
2023/10/31 06:08:33;;;;;;;0.60;0.40;;;;;;;9.52;100.00;97542.28;5021230;28;20087;-74
2023/10/31 06:11:00;;;;;;;2.10;0.38;;;;;;;9.62;100.00;97560.66;5025255;28;20065;-73
2023/10/31 06:13:29;;;;;;;0.93;0.20;;;;;;;9.64;100.00;97578.28;5041917;28;20017;-74
2023/10/31 06:15:55;;;;;;;0.90;0.20;;;;;;;9.74;100.00;97582.28;5040737;28;20322;-74
2023/10/31 06:18:20;;;;;;;1.52;0.30;;;;;;;9.68;100.00;97565.13;5041049;28;20032;-74
2023/10/31 06:20:46;;;;;;;4.10;0.45;;;;;;;9.74;100.00;97569.59;5041378;28;20025;-74
2023/10/31 06:23:11;;;;;;;0.17;0.13;;;;;;;9.83;100.00;97562.84;5041674;28;20036;-75
2023/10/31 06:25:37;;;;;;;6.97;0.40;;;;;;;9.86;100.00;97573.19;5024992;28;20092;-75
2023/10/31 06:28:02;;;;;;;2.15;0.30;;;;;;;9.94;100.00;97579.34;5024326;28;20071;-74
2023/10/31 06:30:27;;;;;;;1.45;0.40;;;;;;;9.93;100.00;97578.53;5022968;28;20064;-74
2023/10/31 06:32:53;;;;;;;1.85;0.30;;;;;;;9.97;100.00;97581.56;5024951;28;20017;-74
2023/10/31 06:35:19;;;;;;;1.27;0.38;;;;;;;9.96;100.00;97574.53;5042736;28;20018;-74
2023/10/31 06:37:44;;;;;;;2.30;0.30;;;;;;;10.02;100.00;97584.41;5025280;28;20018;-74
2023/10/31 06:40:10;;;;;;;4.50;0.20;;;;;;;9.94;100.00;97579.34;5042037;28;20250;-74
2023/10/31 06:42:35;;;;;;;2.08;0.28;;;;;;;10.06;100.00;97582.88;5041338;28;20021;-74
2023/10/31 06:45:01;;;;;;;0.77;0.30;;;;;;;10.06;100.00;97585.59;5034347;28;20021;-74
2023/10/31 06:47:26;;;;;;;0.60;0.17;;;;;;;10.06;100.00;97591.84;5041134;28;20017;-75
2023/10/31 06:49:54;;;;;;;0.52;0.32;;;;;;;10.13;100.00;97604.44;5025874;28;20064;-73
2023/10/31 06:52:19;;;;;;;0.95;0.30;;;;;;;10.16;100.00;97612.06;5046017;28;20051;-70
2023/10/31 06:54:44;;;;;;;6.03;0.40;;;;;;;10.15;100.00;97608.53;5045284;28;20059;-71
2023/10/31 06:57:10;;;;;;;2.95;0.50;;;;;;;10.16;100.00;97607.47;5045465;28;20052;-73
2023/10/31 06:59:35;;;;;;;1.25;0.40;;;;;;;10.12;100.00;97619.00;5045351;28;20071;-73
2023/10/31 07:02:00;;;;;;;1.60;0.90;;;;;;;9.98;100.00;97616.47;5031277;28;20028;-72
2023/10/31 07:04:26;;;;;;;3.47;0.70;;;;;;;10.00;100.00;97617.06;5028784;28;20230;-75
2023/10/31 07:06:56;;;;;;;1.85;0.50;;;;;;;10.09;100.00;97621.09;5026799;28;20026;-74
2023/10/31 07:09:23;;;;;;;2.00;0.45;;;;;;;10.06;100.00;97616.16;5044058;28;20048;-74
2023/10/31 07:11:48;;;;;;;0.93;0.60;;;;;;;10.12;100.00;97629.81;5035921;28;20044;-75
2023/10/31 07:14:13;;;;;;;6.22;0.85;;;;;;;10.08;100.00;97624.03;5033174;28;20025;-76
2023/10/31 07:16:38;;;;;;;1.63;0.40;;;;;;;10.14;100.00;97638.50;5050522;28;20018;-72
2023/10/31 07:19:04;;;;;;;1.40;0.40;;;;;;;10.18;100.00;97648.63;5020507;28;20337;-72
2023/10/31 07:21:29;;;;;;;1.25;0.50;;;;;;;10.23;100.00;97640.66;5045288;28;20025;-79
2023/10/31 07:23:55;;;;;;;4.80;0.35;;;;;;;10.25;100.00;97635.84;5023946;28;20029;-73
2023/10/31 07:26:21;;;;;;;1.15;0.40;;;;;;;10.38;100.00;97636.75;5022172;28;20306;-73
2023/10/31 07:28:48;;;;;;;0.35;0.22;;;;;;;10.36;100.00;97631.56;5046326;28;20337;-77
2023/10/31 07:31:14;;;;;;;1.88;0.60;;;;;;;10.49;100.00;97633.25;5044573;28;20033;-78
2023/10/31 07:33:39;;;;;;;0.63;0.38;;;;;;;10.51;100.00;97644.66;5040646;28;20032;-76
2023/10/31 07:36:05;;;;;;;0.32;0.15;;;;;;;10.63;100.00;97645.50;5044139;28;20072;-76
2023/10/31 07:38:30;;;;;;;4.85;0.30;;;;;;;10.80;100.00;97652.94;5033446;28;20025;-76
2023/10/31 07:40:55;;;;;;;1.02;0.30;;;;;;;10.85;100.00;97643.06;5048771;28;20211;-75
2023/10/31 07:43:21;;;;;;;0.47;0.30;;;;;;;10.79;100.00;97646.69;5028443;28;20037;-75
2023/10/31 07:45:47;;;;;;;0.68;0.30;;;;;;;10.84;100.00;97651.41;5043281;28;20021;-74
2023/10/31 07:48:12;;;;;;;0.65;0.32;;;;;;;10.94;100.00;97666.00;5044710;28;20092;-74
2023/10/31 07:50:37;;;;;;;1.33;0.25;;;;;;;11.02;100.00;97672.97;5045554;28;20022;-77
2023/10/31 07:53:02;;;;;;;1.13;0.32;;;;;;;10.94;100.00;97663.31;5025490;28;20025;-78
2023/10/31 07:55:28;;;;;;;1.67;0.38;;;;;;;11.04;100.00;97670.84;5026005;28;20024;-75
2023/10/31 07:57:53;;;;;;;2.30;0.20;;;;;;;10.85;100.00;97650.38;5046826;28;20075;-76
2023/10/31 08:00:19;;;;;;;0.52;0.25;;;;;;;10.85;100.00;97653.91;5023446;28;20021;-79
2023/10/31 08:02:44;;;;;;;2.63;0.25;;;;;;;10.85;100.00;97656.59;5027720;28;20017;-79
2023/10/31 08:05:10;;;;;;;2.17;0.40;;;;;;;11.06;100.00;97676.88;5025736;28;20036;-72
2023/10/31 08:07:36;;;;;;;4.88;0.50;;;;;;;11.25;100.00;97682.16;5043765;28;20048;-73
2023/10/31 08:10:01;;;;;;;2.42;0.40;;;;;;;11.32;100.00;97672.88;5035992;28;20191;-74
2023/10/31 08:12:28;;;;;;;1.00;0.20;;;;;;;11.53;100.00;97667.91;5047374;28;20036;-74
2023/10/31 08:14:53;;;;;;;0.52;0.22;;;;;;;11.60;100.00;97668.59;5033876;23;20048;-74
2023/10/31 08:17:19;;;;;;;0.73;0.35;;;;;;;11.57;100.00;97677.19;5015152;28;20030;-75
2023/10/31 08:19:44;;;;;;;0.77;0.20;;;;;;;11.76;100.00;97672.44;5023308;28;20190;-75
2023/10/31 08:22:09;;;;;;;0.70;0.30;;;;;;;11.72;100.00;97682.13;5033263;28;20080;-74
2023/10/31 08:24:36;;;;;;;2.35;0.50;;;;;;;11.70;100.00;97681.53;5041848;28;20028;-75
2023/10/31 08:27:02;;;;;;;1.20;0.20;;;;;;;11.80;100.00;97679.88;5048253;28;20052;-75
2023/10/31 08:29:27;;;;;;;2.55;0.40;;;;;;;11.89;100.00;97695.78;5040973;28;20307;-75
2023/10/31 08:31:52;;;;;;;1.95;0.20;;;;;;;11.98;100.00;97692.47;5047631;28;20030;-79
2023/10/31 08:34:18;;;;;;;1.33;0.22;;;;;;;12.09;100.00;97682.66;5047372;28;20344;-78
2023/10/31 08:36:43;;;;;;;0.60;0.20;;;;;;;12.26;100.00;97688.97;5055657;28;20017;-76
2023/10/31 08:39:08;;;;;;;2.28;0.30;;;;;;;12.30;100.00;97689.31;5062709;28;20101;-77
2023/10/31 08:41:34;;;;;;;0.82;0.22;;;;;;;12.23;100.00;97688.63;5057167;28;20044;-76
2023/10/31 08:44:01;;;;;;;0.60;0.20;;;;;;;12.35;100.00;97704.88;5052498;28;20028;-74
2023/10/31 08:46:26;;;;;;;0.73;0.30;;;;;;;12.47;100.00;97719.19;5052490;28;20318;-75
2023/10/31 08:48:52;;;;;;;1.13;0.40;;;;;;;12.42;100.00;97706.38;5032042;28;20025;-78
2023/10/31 08:51:17;;;;;;;2.25;0.52;;;;;;;12.49;100.00;97701.59;5037672;28;20361;-78
2023/10/31 08:53:42;;;;;;;2.15;1.05;;;;;;;12.56;100.00;97706.88;5048775;28;20028;-77
2023/10/31 08:56:08;;;;;;;1.88;0.20;;;;;;;12.93;100.00;97707.28;5050843;28;20025;-76
2023/10/31 08:58:33;;;;;;;1.65;0.30;;;;;;;12.71;100.00;97679.22;5052812;28;20021;-77
2023/10/31 09:00:59;;;;;;;2.63;0.40;;;;;;;12.70;100.00;97699.25;5049497;28;20057;-78
2023/10/31 09:03:24;;;;;;;2.08;0.30;;;;;;;12.89;100.00;97667.28;5037812;28;20049;-80
2023/10/31 09:05:49;;;;;;;2.22;0.22;;;;;;;13.45;100.00;97698.09;5046112;28;20021;-76
2023/10/31 09:08:14;;;;;;;0.65;0.28;;;;;;;13.91;100.00;97695.19;5039635;28;20093;-80
2023/10/31 09:10:42;;;;;;;1.73;0.40;;;;;;;14.21;100.00;97694.75;5051908;28;20246;-76
2023/10/31 09:13:08;;;;;;;1.83;0.50;;;;;;;15.50;100.00;97701.16;5044903;28;20029;-75
2023/10/31 09:15:33;;;;;;;1.73;0.50;;;;;;;15.38;100.00;97700.53;5033812;28;20067;-76
2023/10/31 09:17:58;;;;;;;4.47;0.60;;;;;;;15.47;100.00;97704.41;5046431;28;20322;-73
2023/10/31 09:20:24;;;;;;;2.97;0.38;;;;;;;15.31;100.00;97706.19;5038499;28;20037;-72
2023/10/31 09:22:49;;;;;;;7.53;0.75;;;;;;;14.94;100.00;97711.63;5031300;28;20048;-72
2023/10/31 09:25:14;;;;;;;1.20;0.40;;;;;;;14.44;100.00;97716.25;5050711;28;20407;-72
2023/10/31 09:27:41;;;;;;;2.05;0.60;;;;;;;14.13;100.00;97703.34;5049443;28;20016;-72
2023/10/31 09:30:06;;;;;;;2.20;0.40;;;;;;;13.70;100.00;97707.66;5054443;28;20245;-72
2023/10/31 09:32:32;;;;;;;2.22;0.40;;;;;;;13.47;100.00;97709.53;5041067;28;20096;-72
2023/10/31 09:34:57;;;;;;;2.38;0.40;;;;;;;13.11;100.00;97718.97;5042402;28;20025;-72
2023/10/31 09:37:23;;;;;;;5.57;0.55;;;;;;;13.23;100.00;97719.72;5042516;28;20067;-73
2023/10/31 09:39:48;;;;;;;2.42;0.50;;;;;;;13.28;100.00;97716.28;5040752;28;20032;-73
2023/10/31 09:42:14;;;;;;;2.75;0.40;;;;;;;12.69;100.00;97711.19;5033309;28;20048;-76
2023/10/31 09:44:39;;;;;;;5.53;0.45;;;;;;;12.63;100.00;97702.16;5042874;28;20018;-72
2023/10/31 09:47:06;;;;;;;1.77;0.30;;;;;;;12.84;100.00;97713.38;5031494;28;20033;-74
2023/10/31 09:49:31;;;;;;;1.25;0.50;;;;;;;12.80;100.00;97707.59;5046235;28;20117;-73
2023/10/31 09:51:58;;;;;;;3.25;0.47;;;;;;;12.77;100.00;97712.69;5036879;28;20018;-80
2023/10/31 09:54:25;;;;;;;2.72;0.45;;;;;;;12.85;100.00;97732.09;5040027;28;20388;-74
2023/10/31 09:56:51;;;;;;;2.13;0.38;;;;;;;12.89;100.00;97703.41;5042856;28;20218;-74
2023/10/31 09:59:16;;;;;;;1.60;0.47;;;;;;;13.30;100.00;97698.66;5043005;28;20028;-74
2023/10/31 10:01:42;;;;;;;2.67;0.60;;;;;;;13.56;100.00;97709.94;5033662;28;20033;-76
2023/10/31 10:04:07;;;;;;;3.20;0.30;;;;;;;13.93;100.00;97690.31;5041950;28;20030;-74
2023/10/31 10:06:33;;;;;;;3.33;0.55;;;;;;;14.51;100.00;97694.25;5047206;28;20033;-74
2023/10/31 10:08:58;;;;;;;5.03;0.63;;;;;;;14.92;100.00;97689.25;5036870;28;20341;-74
2023/10/31 10:11:24;;;;;;;7.50;0.63;;;;;;;14.84;100.00;97696.00;5042617;28;20253;-74
2023/10/31 10:13:52;;;;;;;2.95;0.70;;;;;;;15.32;100.00;97690.66;5033592;28;20032;-74
2023/10/31 10:16:31;;;;;;;1.55;0.40;;;;;;;14.53;100.00;97700.31;5033383;28;20254;-75
2023/10/31 10:18:56;;;;;;;4.78;0.73;;;;;;;15.30;100.00;97693.66;5043650;28;20088;-75
2023/10/31 10:21:22;;;;;;;9.32;1.23;;;;;;;14.43;100.00;97697.44;5043794;28;20091;-74
2023/10/31 10:23:50;;;;;;;1.35;0.50;;;;;;;14.30;100.00;97703.28;5049298;28;20377;-75
2023/10/31 10:26:16;;;;;;;6.28;0.40;;;;;;;14.65;100.00;97703.72;5042177;28;20173;-74
2023/10/31 10:28:47;;;;;;;3.22;0.68;;;;;;;14.51;100.00;97705.13;5036095;28;20041;-74
2023/10/31 10:31:14;;;;;;;1.90;0.40;;;;;;;14.30;100.00;97720.41;5035096;28;20029;-74
2023/10/31 10:33:41;;;;;;;4.22;0.52;;;;;;;14.28;100.00;97719.03;5048263;28;20029;-74
2023/10/31 10:36:10;;;;;;;5.43;0.70;;;;;;;14.25;100.00;97731.22;5041706;28;20246;-74
2023/10/31 10:38:35;;;;;;;;;;;;;;;14.71;100.00;97722.81;5053467;28;20321;-75
2023/10/31 10:41:02;;;;;;;3.42;0.57;;;;;;;14.32;100.00;97725.63;5031864;28;19915;-74
2023/10/31 10:43:29;;;;;;;4.38;0.60;;;;;;;14.74;100.00;97709.50;5053145;28;20044;-75
2023/10/31 10:45:56;;;;;;;3.58;0.52;;;;;;;15.19;100.00;97726.53;5040482;28;20032;-74
2023/10/31 10:48:22;;;;;;;3.85;0.73;;;;;;;14.76;100.00;97714.69;5036522;28;20317;-75
2023/10/31 10:50:57;;;;;;;3.72;0.40;;;;;;;15.68;100.00;97704.53;5037879;28;20031;-75
2023/10/31 10:53:26;;;;;;;4.50;0.55;;;;;;;16.70;100.00;97710.47;5051657;28;20017;-75
2023/10/31 10:55:56;;;;;;;7.53;1.10;;;;;;;16.72;100.00;97715.66;5029918;28;20027;-75
2023/10/31 10:58:34;;;;;;;2.75;0.70;;;;;;;16.80;100.00;97713.25;5037834;28;20025;-75
2023/10/31 11:01:00;;;;;;;5.43;0.90;;;;;;;16.64;100.00;97698.72;5037838;28;20071;-75
2023/10/31 11:03:27;;;;;;;3.88;0.65;;;;;;;16.14;100.00;97721.19;5042472;28;20025;-75
2023/10/31 11:05:53;;;;;;;3.00;0.82;;;;;;;16.11;100.00;97729.88;5042975;28;20082;-74
2023/10/31 11:08:20;;;;;;;2.47;0.68;;;;;;;16.32;100.00;97726.19;5038116;28;20072;-75
2023/10/31 11:10:46;;;;;;;2.13;0.60;;;;;;;16.53;100.00;97712.59;5039024;28;20283;-75
2023/10/31 11:13:12;;;;;;;7.22;0.70;;;;;;;16.07;100.00;97706.97;5039716;28;20258;-75
2023/10/31 11:15:39;;;;;;;3.33;0.50;;;;;;;16.05;100.00;97717.31;5046336;28;20029;-74
2023/10/31 11:18:05;;;;;;;4.43;0.70;;;;;;;15.83;100.00;97728.41;5033119;28;20382;-75
2023/10/31 11:20:31;;;;;;;6.72;0.70;;;;;;;15.53;100.00;97719.69;5047247;28;20381;-74
2023/10/31 11:22:57;;;;;;;4.43;0.60;;;;;;;15.84;100.00;97710.94;5038920;28;20025;-75